sensor_id;sensor_type;location;lat;lon;timestamp;pressure;altitude;pressure_sealevel;temperature;humidity
21153;BME280;10734;44.792;20.482;2023-04-24T07:11:17;99351.66;;;14.99;nan
21153;BME280;10734;44.792;20.482;2023-04-24T07:13:43;99340.59;;;14.90;nan
21153;BME280;10734;44.792;20.482;2023-04-24T07:16:10;99342.84;;;15.06;nan
21153;BME280;10734;44.792;20.482;2023-04-24T07:18:38;99342.25;;;15.24;nan
21153;BME280;10734;44.792;20.482;2023-04-24T07:21:06;99334.59;;;15.29;nan
21153;BME280;10734;44.792;20.482;2023-04-24T07:23:33;99346.16;;;15.31;nan
21153;BME280;10734;44.792;20.482;2023-04-24T07:26:00;99338.34;;;15.17;nan
21153;BME280;10734;44.792;20.482;2023-04-24T07:28:27;99349.13;;;15.28;nan
21153;BME280;10734;44.792;20.482;2023-04-24T07:30:57;99351.44;;;15.53;nan
21153;BME280;10734;44.792;20.482;2023-04-24T07:33:26;99361.72;;;15.80;nan
21153;BME280;10734;44.792;20.482;2023-04-24T07:35:53;99353.03;;;15.87;nan
21153;BME280;10734;44.792;20.482;2023-04-24T07:38:20;99356.94;;;15.94;nan
21153;BME280;10734;44.792;20.482;2023-04-24T07:40:48;99367.38;;;15.98;nan
21153;BME280;10734;44.792;20.482;2023-04-24T07:43:15;99356.56;;;16.18;nan
21153;BME280;10734;44.792;20.482;2023-04-24T07:45:42;99361.06;;;16.38;nan
21153;BME280;10734;44.792;20.482;2023-04-24T07:48:09;99363.63;;;16.49;nan
21153;BME280;10734;44.792;20.482;2023-04-24T07:50:37;99366.34;;;16.49;nan
21153;BME280;10734;44.792;20.482;2023-04-24T07:53:03;99360.09;;;16.88;nan
21153;BME280;10734;44.792;20.482;2023-04-24T07:55:30;99363.63;;;17.46;nan
21153;BME280;10734;44.792;20.482;2023-04-24T07:57:57;99358.59;;;17.52;nan
21153;BME280;10734;44.792;20.482;2023-04-24T08:00:24;99368.56;;;17.04;nan
21153;BME280;10734;44.792;20.482;2023-04-24T08:02:51;99362.66;;;17.18;nan
21153;BME280;10734;44.792;20.482;2023-04-24T08:05:18;99367.53;;;17.24;nan
21153;BME280;10734;44.792;20.482;2023-04-24T08:07:46;99362.72;;;17.56;nan
21153;BME280;10734;44.792;20.482;2023-04-24T08:10:15;99369.66;;;17.40;nan
21153;BME280;10734;44.792;20.482;2023-04-24T08:12:41;99366.72;;;17.71;nan
21153;BME280;10734;44.792;20.482;2023-04-24T08:15:08;99366.56;;;18.10;nan
21153;BME280;10734;44.792;20.482;2023-04-24T08:17:36;99355.16;;;18.52;nan
21153;BME280;10734;44.792;20.482;2023-04-24T08:20:03;99360.59;;;19.05;nan
21153;BME280;10734;44.792;20.482;2023-04-24T08:22:32;99361.47;;;19.24;nan
21153;BME280;10734;44.792;20.482;2023-04-24T08:24:59;99362.34;;;19.06;nan
21153;BME280;10734;44.792;20.482;2023-04-24T08:27:26;99365.13;;;19.14;nan
21153;BME280;10734;44.792;20.482;2023-04-24T08:29:54;99369.13;;;19.02;nan
21153;BME280;10734;44.792;20.482;2023-04-24T08:32:21;99372.09;;;18.73;nan
21153;BME280;10734;44.792;20.482;2023-04-24T08:34:48;99362.47;;;18.69;nan
21153;BME280;10734;44.792;20.482;2023-04-24T08:37:15;99362.78;;;18.48;nan
21153;BME280;10734;44.792;20.482;2023-04-24T08:39:42;99370.81;;;18.22;nan
21153;BME280;10734;44.792;20.482;2023-04-24T08:42:11;99366.81;;;18.16;nan
21153;BME280;10734;44.792;20.482;2023-04-24T08:44:39;99357.88;;;17.96;nan
21153;BME280;10734;44.792;20.482;2023-04-24T08:47:07;99359.94;;;17.85;nan
21153;BME280;10734;44.792;20.482;2023-04-24T08:49:36;99367.59;;;17.52;nan
21153;BME280;10734;44.792;20.482;2023-04-24T08:52:03;99372.97;;;17.34;nan
21153;BME280;10734;44.792;20.482;2023-04-24T08:54:32;99368.94;;;17.29;nan
21153;BME280;10734;44.792;20.482;2023-04-24T08:57:01;99375.56;;;17.07;nan
21153;BME280;10734;44.792;20.482;2023-04-24T08:59:28;99372.84;;;16.97;nan
21153;BME280;10734;44.792;20.482;2023-04-24T09:01:56;99367.84;;;16.92;nan
21153;BME280;10734;44.792;20.482;2023-04-24T09:04:24;99364.84;;;16.95;nan
21153;BME280;10734;44.792;20.482;2023-04-24T09:06:55;99369.69;;;17.01;nan
21153;BME280;10734;44.792;20.482;2023-04-24T09:09:23;99361.13;;;16.96;nan
21153;BME280;10734;44.792;20.482;2023-04-24T09:11:52;99355.66;;;17.16;nan
21153;BME280;10734;44.792;20.482;2023-04-24T09:14:21;99357.94;;;17.30;nan
21153;BME280;10734;44.792;20.482;2023-04-24T09:16:50;99354.47;;;17.38;nan
21153;BME280;10734;44.792;20.482;2023-04-24T09:19:17;99349.75;;;17.40;nan
21153;BME280;10734;44.792;20.482;2023-04-24T09:21:47;99360.34;;;17.43;nan
21153;BME280;10734;44.792;20.482;2023-04-24T09:24:16;99349.59;;;17.41;nan
21153;BME280;10734;44.792;20.482;2023-04-24T09:26:44;99353.06;;;17.34;nan
21153;BME280;10734;44.792;20.482;2023-04-24T09:29:15;99347.44;;;17.35;nan
21153;BME280;10734;44.792;20.482;2023-04-24T09:31:44;99359.78;;;17.39;nan
21153;BME280;10734;44.792;20.482;2023-04-24T09:34:12;99357.19;;;17.38;nan
21153;BME280;10734;44.792;20.482;2023-04-24T09:36:41;99344.31;;;17.40;nan
21153;BME280;10734;44.792;20.482;2023-04-24T09:39:14;99342.84;;;17.45;nan
21153;BME280;10734;44.792;20.482;2023-04-24T09:41:55;99340.28;;;17.44;nan
21153;BME280;10734;44.792;20.482;2023-04-24T09:44:28;99343.09;;;17.52;nan
21153;BME280;10734;44.792;20.482;2023-04-24T09:46:56;99341.38;;;17.61;nan
21153;BME280;10734;44.792;20.482;2023-04-24T09:49:26;99343.81;;;17.64;nan
21153;BME280;10734;44.792;20.482;2023-04-24T09:52:13;99352.09;;;17.62;nan
21153;BME280;10734;44.792;20.482;2023-04-24T09:54:41;99344.84;;;17.53;nan
21153;BME280;10734;44.792;20.482;2023-04-24T09:57:08;99345.44;;;17.47;nan
21153;BME280;10734;44.792;20.482;2023-04-24T09:59:42;99346.75;;;17.43;nan
21153;BME280;10734;44.792;20.482;2023-04-24T10:02:20;99351.06;;;17.26;nan
21153;BME280;10734;44.792;20.482;2023-04-24T10:04:55;99360.66;;;17.11;nan
21153;BME280;10734;44.792;20.482;2023-04-24T10:07:25;99369.69;;;17.11;nan
21153;BME280;10734;44.792;20.482;2023-04-24T10:09:53;99371.28;;;16.94;nan
21153;BME280;10734;44.792;20.482;2023-04-24T10:12:21;99378.56;;;16.74;nan
21153;BME280;10734;44.792;20.482;2023-04-24T10:14:54;99374.25;;;16.72;nan
21153;BME280;10734;44.792;20.482;2023-04-24T10:17:21;99388.84;;;16.71;nan
21153;BME280;10734;44.792;20.482;2023-04-24T10:19:50;99379.66;;;16.52;nan
21153;BME280;10734;44.792;20.482;2023-04-24T10:22:17;99375.06;;;16.43;nan
21153;BME280;10734;44.792;20.482;2023-04-24T10:24:45;99373.63;;;16.39;nan
21153;BME280;10734;44.792;20.482;2023-04-24T10:27:13;99350.19;;;16.38;nan
21153;BME280;10734;44.792;20.482;2023-04-24T10:29:43;99327.56;;;16.28;nan
21153;BME280;10734;44.792;20.482;2023-04-24T10:32:10;99327.00;;;16.34;nan
21153;BME280;10734;44.792;20.482;2023-04-24T10:34:37;99333.84;;;16.28;nan
21153;BME280;10734;44.792;20.482;2023-04-24T10:37:04;99344.41;;;16.22;nan
21153;BME280;10734;44.792;20.482;2023-04-24T10:39:31;99330.38;;;16.07;nan
21153;BME280;10734;44.792;20.482;2023-04-24T10:41:59;99333.81;;;16.09;nan
21153;BME280;10734;44.792;20.482;2023-04-24T10:44:36;99327.94;;;16.04;nan
21153;BME280;10734;44.792;20.482;2023-04-24T10:47:03;99330.09;;;16.20;nan
21153;BME280;10734;44.792;20.482;2023-04-24T10:49:31;99317.56;;;16.38;nan
21153;BME280;10734;44.792;20.482;2023-04-24T10:52:04;99313.88;;;16.59;nan
21153;BME280;10734;44.792;20.482;2023-04-24T10:57:33;99321.03;;;16.98;nan
21153;BME280;10734;44.792;20.482;2023-04-24T11:02:40;99321.56;;;17.12;nan
21153;BME280;10734;44.792;20.482;2023-04-24T11:05:10;99316.72;;;17.15;nan
21153;BME280;10734;44.792;20.482;2023-04-24T11:08:15;99307.91;;;17.41;nan
21153;BME280;10734;44.792;20.482;2023-04-24T11:10:46;99302.19;;;17.81;nan
21153;BME280;10734;44.792;20.482;2023-04-24T11:13:17;99298.50;;;18.28;nan
21153;BME280;10734;44.792;20.482;2023-04-24T11:16:14;99299.66;;;18.61;nan
21153;BME280;10734;44.792;20.482;2023-04-24T11:18:43;99288.00;;;18.68;nan
21153;BME280;10734;44.792;20.482;2023-04-24T11:21:17;99276.22;;;18.50;nan
21153;BME280;10734;44.792;20.482;2023-04-24T11:23:45;99274.56;;;18.39;nan
21153;BME280;10734;44.792;20.482;2023-04-24T11:26:17;99269.97;;;18.40;nan
21153;BME280;10734;44.792;20.482;2023-04-24T11:28:46;99260.41;;;18.36;nan
21153;BME280;10734;44.792;20.482;2023-04-24T11:31:38;99243.19;;;18.17;nan
21153;BME280;10734;44.792;20.482;2023-04-24T11:34:10;99246.53;;;18.11;nan
21153;BME280;10734;44.792;20.482;2023-04-24T11:36:38;99238.19;;;18.13;nan
21153;BME280;10734;44.792;20.482;2023-04-24T11:39:06;99241.81;;;18.31;nan
21153;BME280;10734;44.792;20.482;2023-04-24T11:41:33;99239.31;;;18.38;nan
21153;BME280;10734;44.792;20.482;2023-04-24T11:44:02;99237.59;;;18.55;nan
21153;BME280;10734;44.792;20.482;2023-04-24T11:46:30;99230.19;;;18.47;nan
21153;BME280;10734;44.792;20.482;2023-04-24T11:48:58;99235.19;;;18.52;nan
21153;BME280;10734;44.792;20.482;2023-04-24T11:51:27;99225.44;;;18.31;nan
21153;BME280;10734;44.792;20.482;2023-04-24T11:53:59;99228.88;;;18.15;nan
21153;BME280;10734;44.792;20.482;2023-04-24T11:56:29;99221.47;;;18.08;nan
21153;BME280;10734;44.792;20.482;2023-04-24T11:58:56;99230.56;;;17.99;nan
21153;BME280;10734;44.792;20.482;2023-04-24T12:01:23;99224.47;;;17.87;nan
21153;BME280;10734;44.792;20.482;2023-04-24T12:03:50;99217.25;;;17.68;nan
21153;BME280;10734;44.792;20.482;2023-04-24T12:06:18;99228.72;;;17.62;nan
21153;BME280;10734;44.792;20.482;2023-04-24T12:08:47;99224.19;;;17.53;nan
21153;BME280;10734;44.792;20.482;2023-04-24T12:11:15;99229.19;;;17.30;nan
21153;BME280;10734;44.792;20.482;2023-04-24T12:13:43;99224.91;;;17.17;nan
21153;BME280;10734;44.792;20.482;2023-04-24T12:16:11;99212.75;;;17.12;nan
21153;BME280;10734;44.792;20.482;2023-04-24T12:18:42;99220.78;;;17.13;nan
21153;BME280;10734;44.792;20.482;2023-04-24T12:23:45;99221.13;;;17.38;nan
21153;BME280;10734;44.792;20.482;2023-04-24T12:26:19;99214.25;;;17.61;nan
21153;BME280;10734;44.792;20.482;2023-04-24T12:28:48;99204.41;;;17.88;nan
21153;BME280;10734;44.792;20.482;2023-04-24T12:31:16;99202.41;;;18.08;nan
21153;BME280;10734;44.792;20.482;2023-04-24T12:33:43;99190.22;;;18.20;nan
21153;BME280;10734;44.792;20.482;2023-04-24T12:36:11;99185.19;;;18.25;nan
21153;BME280;10734;44.792;20.482;2023-04-24T12:38:39;99177.22;;;18.50;nan
21153;BME280;10734;44.792;20.482;2023-04-24T12:41:12;99180.00;;;18.58;nan
21153;BME280;10734;44.792;20.482;2023-04-24T12:43:53;99173.00;;;18.37;nan
21153;BME280;10734;44.792;20.482;2023-04-24T12:46:20;99171.41;;;18.44;nan
21153;BME280;10734;44.792;20.482;2023-04-24T12:48:48;99169.16;;;18.22;nan
21153;BME280;10734;44.792;20.482;2023-04-24T12:51:14;99172.75;;;18.05;nan
21153;BME280;10734;44.792;20.482;2023-04-24T12:53:41;99168.22;;;17.95;nan
21153;BME280;10734;44.792;20.482;2023-04-24T12:56:08;99171.25;;;18.10;nan
21153;BME280;10734;44.792;20.482;2023-04-24T12:58:35;99165.47;;;17.95;nan
21153;BME280;10734;44.792;20.482;2023-04-24T13:01:01;99150.88;;;18.14;nan
21153;BME280;10734;44.792;20.482;2023-04-24T13:03:28;99157.00;;;18.34;nan
21153;BME280;10734;44.792;20.482;2023-04-24T13:05:55;99141.81;;;18.32;nan
21153;BME280;10734;44.792;20.482;2023-04-24T13:08:22;99143.66;;;18.49;nan
21153;BME280;10734;44.792;20.482;2023-04-24T13:10:49;99130.59;;;18.79;nan
21153;BME280;10734;44.792;20.482;2023-04-24T13:13:17;99130.19;;;19.00;nan
21153;BME280;10734;44.792;20.482;2023-04-24T13:15:44;99121.31;;;18.98;nan
21153;BME280;10734;44.792;20.482;2023-04-24T13:18:11;99112.66;;;19.02;nan
21153;BME280;10734;44.792;20.482;2023-04-24T13:20:38;99111.81;;;19.10;nan
21153;BME280;10734;44.792;20.482;2023-04-24T13:23:05;99106.31;;;19.02;nan
21153;BME280;10734;44.792;20.482;2023-04-24T13:25:35;99101.94;;;19.09;nan
21153;BME280;10734;44.792;20.482;2023-04-24T13:28:03;99108.91;;;19.11;nan
21153;BME280;10734;44.792;20.482;2023-04-24T13:30:31;99107.97;;;18.86;nan
21153;BME280;10734;44.792;20.482;2023-04-24T13:32:58;99098.84;;;18.78;nan
21153;BME280;10734;44.792;20.482;2023-04-24T13:35:25;99094.63;;;18.83;nan
21153;BME280;10734;44.792;20.482;2023-04-24T13:37:52;99089.47;;;18.72;nan
21153;BME280;10734;44.792;20.482;2023-04-24T13:40:19;99079.31;;;18.64;nan
21153;BME280;10734;44.792;20.482;2023-04-24T13:42:45;99084.41;;;18.59;nan
21153;BME280;10734;44.792;20.482;2023-04-24T13:45:18;99086.72;;;18.46;nan
21153;BME280;10734;44.792;20.482;2023-04-24T13:47:50;99070.19;;;18.48;nan
21153;BME280;10734;44.792;20.482;2023-04-24T13:50:18;99070.94;;;18.58;nan
21153;BME280;10734;44.792;20.482;2023-04-24T13:52:45;99063.84;;;18.65;nan
21153;BME280;10734;44.792;20.482;2023-04-24T13:55:12;99066.31;;;18.76;nan
21153;BME280;10734;44.792;20.482;2023-04-24T13:57:38;99062.22;;;18.80;nan
21153;BME280;10734;44.792;20.482;2023-04-24T14:00:06;99046.25;;;18.85;nan
21153;BME280;10734;44.792;20.482;2023-04-24T14:02:35;99043.88;;;18.90;nan
21153;BME280;10734;44.792;20.482;2023-04-24T14:05:03;99037.81;;;19.13;nan
21153;BME280;10734;44.792;20.482;2023-04-24T14:07:30;99037.03;;;19.37;nan
21153;BME280;10734;44.792;20.482;2023-04-24T14:09:58;99033.81;;;19.58;nan
21153;BME280;10734;44.792;20.482;2023-04-24T14:12:25;99029.06;;;19.60;nan
21153;BME280;10734;44.792;20.482;2023-04-24T14:14:52;99027.38;;;19.67;nan
21153;BME280;10734;44.792;20.482;2023-04-24T14:17:18;99027.56;;;19.82;nan
21153;BME280;10734;44.792;20.482;2023-04-24T14:19:45;99026.00;;;20.04;nan
21153;BME280;10734;44.792;20.482;2023-04-24T14:22:12;99023.09;;;20.05;nan
21153;BME280;10734;44.792;20.482;2023-04-24T14:24:39;99019.00;;;20.09;nan
21153;BME280;10734;44.792;20.482;2023-04-24T14:27:05;99013.34;;;19.62;nan
21153;BME280;10734;44.792;20.482;2023-04-24T14:29:32;99020.50;;;19.47;nan
21153;BME280;10734;44.792;20.482;2023-04-24T14:32:00;99012.44;;;19.29;nan
21153;BME280;10734;44.792;20.482;2023-04-24T14:34:27;99006.81;;;19.30;nan
21153;BME280;10734;44.792;20.482;2023-04-24T14:36:54;99000.97;;;19.17;nan
21153;BME280;10734;44.792;20.482;2023-04-24T14:39:21;99000.78;;;19.10;nan
21153;BME280;10734;44.792;20.482;2023-04-24T14:41:47;98997.38;;;19.08;nan
21153;BME280;10734;44.792;20.482;2023-04-24T14:44:14;98999.56;;;18.97;nan
21153;BME280;10734;44.792;20.482;2023-04-24T14:46:41;98991.63;;;18.77;nan
21153;BME280;10734;44.792;20.482;2023-04-24T14:49:09;98996.56;;;18.74;nan
21153;BME280;10734;44.792;20.482;2023-04-24T14:51:36;98983.31;;;18.53;nan
21153;BME280;10734;44.792;20.482;2023-04-24T14:54:03;98986.88;;;18.45;nan
21153;BME280;10734;44.792;20.482;2023-04-24T14:56:30;98986.72;;;18.20;nan
21153;BME280;10734;44.792;20.482;2023-04-24T14:58:56;98981.25;;;18.20;nan
21153;BME280;10734;44.792;20.482;2023-04-24T15:01:23;98979.41;;;18.21;nan
21153;BME280;10734;44.792;20.482;2023-04-24T15:03:50;98975.78;;;18.12;nan
21153;BME280;10734;44.792;20.482;2023-04-24T15:06:18;98973.59;;;18.16;nan
21153;BME280;10734;44.792;20.482;2023-04-24T15:08:45;98966.75;;;18.12;nan
21153;BME280;10734;44.792;20.482;2023-04-24T15:11:14;98970.91;;;17.98;nan
21153;BME280;10734;44.792;20.482;2023-04-24T15:13:41;98965.47;;;17.98;nan
21153;BME280;10734;44.792;20.482;2023-04-24T15:16:08;98962.56;;;18.00;nan
21153;BME280;10734;44.792;20.482;2023-04-24T15:18:35;98956.06;;;17.92;nan
21153;BME280;10734;44.792;20.482;2023-04-24T15:21:02;98962.00;;;17.88;nan
21153;BME280;10734;44.792;20.482;2023-04-24T15:23:29;98953.69;;;17.71;nan
21153;BME280;10734;44.792;20.482;2023-04-24T15:25:55;98955.31;;;17.64;nan
21153;BME280;10734;44.792;20.482;2023-04-24T15:28:24;98966.25;;;17.46;nan
21153;BME280;10734;44.792;20.482;2023-04-24T15:30:50;98954.34;;;17.47;nan
21153;BME280;10734;44.792;20.482;2023-04-24T15:33:17;98958.84;;;17.39;nan
21153;BME280;10734;44.792;20.482;2023-04-24T15:35:44;98956.34;;;17.45;nan
21153;BME280;10734;44.792;20.482;2023-04-24T15:38:11;98956.88;;;17.49;nan
21153;BME280;10734;44.792;20.482;2023-04-24T15:40:37;98962.50;;;17.47;nan
21153;BME280;10734;44.792;20.482;2023-04-24T15:43:04;98950.66;;;17.39;nan
21153;BME280;10734;44.792;20.482;2023-04-24T15:45:32;98951.38;;;17.41;nan
21153;BME280;10734;44.792;20.482;2023-04-24T15:47:59;98957.38;;;17.44;nan
21153;BME280;10734;44.792;20.482;2023-04-24T15:50:27;98960.88;;;17.37;nan
21153;BME280;10734;44.792;20.482;2023-04-24T15:52:54;98958.28;;;17.35;nan
21153;BME280;10734;44.792;20.482;2023-04-24T15:55:21;98954.81;;;17.25;nan
21153;BME280;10734;44.792;20.482;2023-04-24T15:57:48;98949.84;;;17.20;nan
21153;BME280;10734;44.792;20.482;2023-04-24T16:00:16;98949.47;;;17.15;nan
21153;BME280;10734;44.792;20.482;2023-04-24T16:02:43;98950.06;;;17.09;nan
21153;BME280;10734;44.792;20.482;2023-04-24T16:05:10;98935.28;;;17.12;nan
21153;BME280;10734;44.792;20.482;2023-04-24T16:07:37;98944.22;;;17.22;nan
21153;BME280;10734;44.792;20.482;2023-04-24T16:10:05;98936.91;;;17.40;nan
21153;BME280;10734;44.792;20.482;2023-04-24T16:12:32;98940.56;;;17.49;nan
21153;BME280;10734;44.792;20.482;2023-04-24T16:15:00;98933.69;;;17.63;nan
21153;BME280;10734;44.792;20.482;2023-04-24T16:17:27;98938.06;;;17.56;nan
21153;BME280;10734;44.792;20.482;2023-04-24T16:19:54;98923.34;;;17.84;nan
21153;BME280;10734;44.792;20.482;2023-04-24T16:22:20;98928.72;;;18.02;nan
21153;BME280;10734;44.792;20.482;2023-04-24T16:24:47;98931.09;;;17.97;nan
21153;BME280;10734;44.792;20.482;2023-04-24T16:27:14;98916.34;;;18.08;nan
21153;BME280;10734;44.792;20.482;2023-04-24T16:29:41;98918.06;;;18.17;nan
21153;BME280;10734;44.792;20.482;2023-04-24T16:32:08;98925.88;;;18.12;nan
21153;BME280;10734;44.792;20.482;2023-04-24T16:34:36;98918.66;;;18.03;nan
21153;BME280;10734;44.792;20.482;2023-04-24T16:37:03;98925.75;;;17.87;nan
21153;BME280;10734;44.792;20.482;2023-04-24T16:39:31;98919.53;;;17.59;nan
21153;BME280;10734;44.792;20.482;2023-04-24T16:41:58;98917.25;;;17.46;nan
21153;BME280;10734;44.792;20.482;2023-04-24T16:44:26;98921.66;;;17.47;nan
21153;BME280;10734;44.792;20.482;2023-04-24T16:46:52;98919.03;;;17.38;nan
21153;BME280;10734;44.792;20.482;2023-04-24T16:49:19;98922.56;;;17.30;nan
21153;BME280;10734;44.792;20.482;2023-04-24T16:51:46;98918.28;;;17.10;nan
21153;BME280;10734;44.792;20.482;2023-04-24T16:54:13;98917.19;;;17.02;nan
21153;BME280;10734;44.792;20.482;2023-04-24T16:56:39;98904.88;;;16.81;nan
21153;BME280;10734;44.792;20.482;2023-04-24T16:59:07;98916.88;;;16.60;nan
21153;BME280;10734;44.792;20.482;2023-04-24T17:01:34;98909.19;;;16.55;nan
21153;BME280;10734;44.792;20.482;2023-04-24T17:04:01;98916.25;;;16.48;nan
21153;BME280;10734;44.792;20.482;2023-04-24T17:06:28;98914.59;;;16.38;nan
21153;BME280;10734;44.792;20.482;2023-04-24T17:08:55;98910.19;;;16.27;nan
21153;BME280;10734;44.792;20.482;2023-04-24T17:11:21;98902.13;;;16.07;nan
21153;BME280;10734;44.792;20.482;2023-04-24T17:13:48;98906.03;;;15.95;nan
21153;BME280;10734;44.792;20.482;2023-04-24T17:16:15;98912.78;;;15.91;nan
21153;BME280;10734;44.792;20.482;2023-04-24T17:18:43;98910.25;;;15.80;nan
21153;BME280;10734;44.792;20.482;2023-04-24T17:21:09;98904.28;;;15.67;nan
21153;BME280;10734;44.792;20.482;2023-04-24T17:23:36;98901.81;;;15.64;nan
21153;BME280;10734;44.792;20.482;2023-04-24T17:26:04;98852.94;;;15.07;nan
21153;BME280;10734;44.792;20.482;2023-04-24T17:28:31;98907.84;;;15.48;nan
21153;BME280;10734;44.792;20.482;2023-04-24T17:30:59;98907.44;;;15.43;nan
21153;BME280;10734;44.792;20.482;2023-04-24T17:33:27;98910.72;;;15.36;nan
21153;BME280;10734;44.792;20.482;2023-04-24T17:35:59;98911.44;;;15.29;nan
21153;BME280;10734;44.792;20.482;2023-04-24T17:38:29;98913.59;;;15.25;nan
21153;BME280;10734;44.792;20.482;2023-04-24T17:40:56;98918.56;;;15.20;nan
21153;BME280;10734;44.792;20.482;2023-04-24T17:43:24;98912.47;;;15.08;nan
21153;BME280;10734;44.792;20.482;2023-04-24T17:45:52;98918.28;;;15.04;nan
21153;BME280;10734;44.792;20.482;2023-04-24T17:48:21;98917.88;;;14.99;nan
21153;BME280;10734;44.792;20.482;2023-04-24T17:50:48;98913.75;;;14.95;nan
21153;BME280;10734;44.792;20.482;2023-04-24T17:53:15;98905.31;;;14.88;nan
21153;BME280;10734;44.792;20.482;2023-04-24T17:55:41;98916.00;;;14.80;nan
21153;BME280;10734;44.792;20.482;2023-04-24T18:00:41;98920.84;;;14.76;nan
21153;BME280;10734;44.792;20.482;2023-04-24T18:03:08;98923.69;;;14.75;nan
21153;BME280;10734;44.792;20.482;2023-04-24T18:05:37;98921.97;;;14.74;nan
21153;BME280;10734;44.792;20.482;2023-04-24T18:08:04;98922.84;;;14.74;nan
21153;BME280;10734;44.792;20.482;2023-04-24T18:10:32;98920.84;;;14.76;nan
21153;BME280;10734;44.792;20.482;2023-04-24T18:15:29;98932.69;;;14.75;nan
21153;BME280;10734;44.792;20.482;2023-04-24T18:17:56;98927.09;;;14.77;nan
21153;BME280;10734;44.792;20.482;2023-04-24T18:20:23;98930.97;;;14.74;nan
21153;BME280;10734;44.792;20.482;2023-04-24T18:22:50;98943.63;;;14.74;nan
21153;BME280;10734;44.792;20.482;2023-04-24T18:25:16;98824.44;;;14.04;nan
21153;BME280;10734;44.792;20.482;2023-04-24T18:27:46;98944.53;;;14.74;nan
21153;BME280;10734;44.792;20.482;2023-04-24T18:30:13;98946.34;;;14.74;nan
21153;BME280;10734;44.792;20.482;2023-04-24T18:32:40;98937.66;;;14.70;nan
21153;BME280;10734;44.792;20.482;2023-04-24T18:40:01;98946.63;;;14.71;nan
21153;BME280;10734;44.792;20.482;2023-04-24T18:42:28;98955.06;;;14.68;nan
21153;BME280;10734;44.792;20.482;2023-04-24T18:44:55;98951.47;;;14.67;nan
21153;BME280;10734;44.792;20.482;2023-04-24T18:49:53;98947.22;;;14.64;nan
21153;BME280;10734;44.792;20.482;2023-04-24T18:52:22;98951.63;;;14.65;nan
21153;BME280;10734;44.792;20.482;2023-04-24T18:54:49;98947.34;;;14.63;nan
21153;BME280;10734;44.792;20.482;2023-04-24T18:57:15;98942.06;;;14.61;nan
21153;BME280;10734;44.792;20.482;2023-04-24T19:02:09;98947.47;;;14.61;nan
21153;BME280;10734;44.792;20.482;2023-04-24T19:04:36;98948.59;;;14.59;nan
21153;BME280;10734;44.792;20.482;2023-04-24T19:07:03;98947.03;;;14.56;nan
21153;BME280;10734;44.792;20.482;2023-04-24T19:09:30;98934.50;;;14.55;nan
21153;BME280;10734;44.792;20.482;2023-04-24T19:11:57;98940.91;;;14.54;nan
21153;BME280;10734;44.792;20.482;2023-04-24T19:14:27;98932.91;;;14.53;nan
21153;BME280;10734;44.792;20.482;2023-04-24T19:16:54;98946.69;;;14.50;nan
21153;BME280;10734;44.792;20.482;2023-04-24T19:19:20;98953.00;;;14.50;nan
21153;BME280;10734;44.792;20.482;2023-04-24T19:41:26;98938.53;;;14.40;nan
21153;BME280;10734;44.792;20.482;2023-04-24T19:43:53;98950.38;;;14.39;nan
21153;BME280;10734;44.792;20.482;2023-04-24T19:46:19;98933.41;;;14.37;nan
21153;BME280;10734;44.792;20.482;2023-04-24T19:51:13;98941.66;;;14.35;nan
21153;BME280;10734;44.792;20.482;2023-04-24T19:53:40;98946.97;;;14.37;nan
21153;BME280;10734;44.792;20.482;2023-04-24T19:56:08;98924.69;;;14.33;nan
21153;BME280;10734;44.792;20.482;2023-04-24T19:58:35;98939.09;;;14.34;nan
21153;BME280;10734;44.792;20.482;2023-04-24T20:03:30;98928.66;;;14.29;nan
21153;BME280;10734;44.792;20.482;2023-04-24T20:08:25;98938.78;;;14.27;nan
21153;BME280;10734;44.792;20.482;2023-04-24T20:10:52;98949.75;;;14.26;nan
21153;BME280;10734;44.792;20.482;2023-04-24T20:13:20;97717.34;;;6.79;nan
21153;BME280;10734;44.792;20.482;2023-04-24T20:15:46;98952.34;;;14.27;nan
21153;BME280;10734;44.792;20.482;2023-04-24T20:18:13;98943.47;;;14.25;nan
21153;BME280;10734;44.792;20.482;2023-04-24T20:20:40;98957.88;;;14.26;nan
21153;BME280;10734;44.792;20.482;2023-04-24T20:23:07;98954.88;;;14.29;nan
21153;BME280;10734;44.792;20.482;2023-04-24T20:25:34;98950.47;;;14.28;nan
21153;BME280;10734;44.792;20.482;2023-04-24T20:28:01;98953.88;;;14.30;nan
21153;BME280;10734;44.792;20.482;2023-04-24T20:30:28;98935.25;;;14.27;nan
21153;BME280;10734;44.792;20.482;2023-04-24T20:32:57;98938.66;;;14.29;nan
21153;BME280;10734;44.792;20.482;2023-04-24T20:35:24;98957.34;;;14.32;nan
21153;BME280;10734;44.792;20.482;2023-04-24T20:37:51;98935.66;;;14.32;nan
21153;BME280;10734;44.792;20.482;2023-04-24T20:42:45;98954.47;;;14.33;nan
21153;BME280;10734;44.792;20.482;2023-04-24T20:45:12;98947.94;;;14.36;nan
21153;BME280;10734;44.792;20.482;2023-04-24T20:47:39;98948.66;;;14.38;nan
21153;BME280;10734;44.792;20.482;2023-04-24T20:50:07;98944.09;;;14.38;nan
21153;BME280;10734;44.792;20.482;2023-04-24T20:57:27;98942.50;;;14.36;nan
21153;BME280;10734;44.792;20.482;2023-04-24T20:59:54;98971.19;;;14.38;nan
21153;BME280;10734;44.792;20.482;2023-04-24T21:02:21;98959.19;;;14.31;nan
21153;BME280;10734;44.792;20.482;2023-04-24T21:07:14;98962.00;;;14.30;nan
21153;BME280;10734;44.792;20.482;2023-04-24T21:09:41;98993.38;;;14.32;nan
21153;BME280;10734;44.792;20.482;2023-04-24T21:12:08;98965.88;;;14.27;nan
21153;BME280;10734;44.792;20.482;2023-04-24T21:14:35;98972.53;;;14.23;nan
21153;BME280;10734;44.792;20.482;2023-04-24T21:17:02;98994.94;;;14.25;nan
21153;BME280;10734;44.792;20.482;2023-04-24T21:19:32;98983.25;;;14.25;nan
21153;BME280;10734;44.792;20.482;2023-04-24T21:21:59;98995.09;;;14.33;nan
21153;BME280;10734;44.792;20.482;2023-04-24T21:24:26;98987.69;;;14.35;nan